Aktualne dane pomiarowe

Uwaga, wersja testowa! Automatyczne pobieranie danych za pomocą narzędzi lub skryptów to umożliwiających jest zabronione.

Dane meteo z obszaru Polski uzyskane na podstawie depesz SYNOP pobieranych co godzinę z NWS. Najedź myszką na symbol przedstawiony w tabeli, aby uzyskać informacje co do jego znaczenia. Prosimy pamiętać, że to testowa wersja strony, która jeszcze nie jest ukończona. Stworzono również jest krótki FAQ dotyczący korzystania z tej podstrony Anomalie temperatury w chwili obecnej odniesione są do okresu referencyjnego 1951-2016. Okres ten będzie później zmieniony na 1981-2010. Kliknij ikonę aby pobrać plik CSV. Kliknij ikonę aby wygenerować mapę synoptyczną dla danego terminu.

Wybierz Datę:    

        

Tarnów (12575)

Dane terminowe dla wybranej stacji. Kliknij datę, aby otrzymać dane z tego terminu dla wszystkich stacji.

TemperaturaZachmurzenieWiatrCiśnienieOpadyPogoda
 Data t td wb tx tn tg rh  Nt Nl Cl Cm Ch ws wd g1 g2 wx mslp ppp ch 24h 12h t ww ww w1 w2  
2019-07-04 23:00:00 11.0 7.5 8.8--- 7918.0--0----1018.5 993.2 -0.7---------
2019-07-04 22:00:00 11.7 7.6 9.1--- 7619.0--0---01018.8 993.6 -0.1---------
2019-07-04 21:00:00 13.2 7.4 9.7--- 6819.0--0---01018.9 993.8 0.0---------
2019-07-04 20:00:00 15.0 7.3 10.5--- 6019.0--0---01018.8 993.9 -0.2---------
2019-07-04 19:00:00 18.3 6.2 11.6--- 4524.0--1wx--11018.3 993.7 -0.7---------
2019-07-04 18:00:00 21.2 4.3 12.2 23.7 15.3- 3325.0--1wx-711018.2 993.8 -1.0- 0.012------
2019-07-04 17:00:00 22.6 3.7 12.6--- 2925.0--2wx--21018.4 994.1 -1.3---------
2019-07-04 16:00:00 23.0 3.5 12.7--- 2822.0--2wx---1018.7 994.4 -1.4---------
2019-07-04 15:00:00 23.1 3.6 12.8--- 2820.0--2wx-721019.1 994.8 -1.4---------
2019-07-04 14:00:00 23.0 4.0 12.9--- 2927.0--2wx-721019.7 995.4 -1.2---------
2019-07-04 13:00:00 22.5 4.0 12.7--- 3022.0--2wx--21020.1 995.8 -1.1---------
2019-07-04 12:00:00 21.0 3.2 11.7--- 3124.0--2wx-721020.7 996.2 -0.8- 0.06------
2019-07-04 11:00:00 21.1 4.2 12.1--- 3319.0--2wx-721021.1 996.6 -0.5---------
2019-07-04 10:00:00 19.8 4.7 11.7--- 3720.0--2wx--21021.5 996.9 -0.4---------
2019-07-04 09:00:00 20.0 4.1 11.6--- 3520.0--1wx--11021.6 997.0 -0.4---------
2019-07-04 08:00:00 19.0 4.7 11.4--- 3919.0--1wx--11021.8 997.1 0.1---------
2019-07-04 07:00:00 17.0 7.3 11.5--- 5318.0--1wx---1022.1 997.3 0.4---------
2019-07-04 06:00:00 15.3 6.6 10.3 20.1 9.7 9 5621.0--1wx--11022.4 997.4 0.8- 0.012----- 13.3
2019-07-04 05:00:00 13.4 7.6 9.9--- 6820.0--1wx--11022.2 997.0 0.7---------
2019-07-04 04:00:00 11.1 7.6 8.9--- 7924.0--0---01022.3 996.9 0.5---------
2019-07-04 03:00:00 10.0 6.9 8.0--- 8125.0--0---01022.1 996.6 0.3---------
2019-07-04 02:00:00 11.0 7.1 8.6--- 7725.0--0---01021.7 996.3 -0.1---------
2019-07-04 01:00:00 11.6 7.5 9.1--- 7623.0--0---01021.7 996.4 0.1---------
2019-07-04 00:00:00 12.0 7.3 9.1--- 7324.0--1wx--11021.6 996.3 0.5- 0.06------
2019-07-03 23:00:00 11.2 6.9 8.6--- 7524.0--0---01021.7 996.4 0.9---------
2019-07-03 22:00:00 11.2 5.9 8.1--- 7023.0--1wx--11021.6 996.3 1.4---------
2019-07-03 21:00:00 11.9 5.5 8.2--- 6526.0--0---01021.1 995.8 1.4---------
2019-07-03 20:00:00 14.0 5.1 9.1--- 5528.0--1wx--11020.6 995.5 1.1---------
2019-07-03 19:00:00 17.8 3.6 10.4--- 3928.0--1wx--11019.6 994.9 0.7---------
2019-07-03 18:00:00 20.1 3.3 11.4 23.9 16.4- 3325.0--2wx-1021018.9 994.4 0.3- 0.012------
2019-07-03 17:00:00 22.0 3.6 12.3--- 3030.0--2wx--21018.8 994.4 -0.1---------
2019-07-03 16:00:00 22.6 4.1 12.8--- 3026.0--3wx--31018.5 994.2 -0.5---------
2019-07-03 15:00:00 23.2 4.2 13.1--- 2927.0--3wx-1031018.3 994.1 -0.6---------
2019-07-03 14:00:00 22.9 3.9 12.8--- 2923.0--3wx8831018.8 994.5 -0.2---------
2019-07-03 13:00:00 22.9 4.4 13.0--- 3028.0--3wx-1031019.0 994.7 -0.4---------
2019-07-03 12:00:00 22.5 4.0 12.7--- 3021.0--3wx8--1019.0 994.7 -0.4---------
2019-07-03 11:00:00 21.9 4.4 12.6--- 3220.0--3wx9931019.1 994.7 -0.3---------
2019-07-03 10:00:00 20.0 5.6 12.2--- 3924.0--2wx7821019.6 995.1 0.4---------
2019-07-03 09:00:00 19.8 6.9 12.6--- 4328.0--3wx---1019.7 995.1 0.3---------
2019-07-03 08:00:00 20.4 6.3 12.6--- 4021.0--3wx--31019.5 995.0 0.3---------
2019-07-03 07:00:00 18.5 8.7 12.8--- 5320.0--2wx--21019.4 994.7 0.4---------
2019-07-03 06:00:00 16.4 9.3 12.1 23.6 11.2 10 6321.0--2wx--21019.6 994.8 0.7- 0.012----- 10.2
2019-07-03 05:00:00 15.5 9.6 11.9--- 6822.0--1wx--11019.6 994.7 1.2---------
2019-07-03 04:00:00 13.5 9.7 11.1--- 7824.0--1wx--11019.4 994.3 1.1---------
2019-07-03 03:00:00 11.2 9.1 9.8--- 8721.0--0---01019.4 994.1 1.0---------
2019-07-03 02:00:00 11.7 8.9 9.9--- 8327.0--1wx--11018.7 993.5 0.6---------
2019-07-03 01:00:00 12.7 9.3 10.5--- 8025.0--0---01018.3 993.2 0.3---------
2019-07-03 00:00:00 13.9 9.9 11.3--- 7722.0--1wx--11018.1 993.1 0.7- 0.06------
3.6 ms

 

Print Friendly, PDF & Email